createdAt,value
2023-03-06T00:01:56.481Z,5.97
2023-03-06T00:04:23.119Z,5.88
2023-03-06T00:06:49.796Z,5.88
2023-03-06T00:09:16.395Z,5.97
2023-03-06T00:12:07.195Z,5.96
2023-03-06T00:14:46.099Z,5.96
2023-03-06T00:17:12.685Z,6.00
2023-03-06T00:19:39.305Z,6.04
2023-03-06T00:22:05.893Z,6.03
2023-03-06T00:24:32.442Z,5.92
2023-03-06T00:26:59.031Z,5.88
2023-03-06T00:29:25.593Z,5.95
2023-03-06T00:31:52.156Z,6.05
2023-03-06T00:34:18.835Z,6.11
2023-03-06T00:36:45.428Z,6.15
2023-03-06T00:39:11.978Z,6.17
2023-03-06T00:41:38.704Z,6.16
2023-03-06T00:44:05.470Z,6.11
2023-03-06T00:47:12.847Z,6.12
2023-03-06T00:49:51.750Z,6.11
2023-03-06T00:52:18.281Z,6.10
2023-03-06T00:54:44.847Z,6.12
2023-03-06T00:57:11.617Z,6.05
2023-03-06T00:59:38.200Z,6.08
2023-03-06T01:02:04.856Z,6.10
2023-03-06T01:04:39.471Z,6.15
2023-03-06T01:07:06.054Z,6.09
2023-03-06T01:09:32.679Z,6.06
2023-03-06T01:11:59.283Z,6.15
2023-03-06T01:14:37.902Z,6.18
2023-03-06T01:17:24.557Z,6.11
2023-03-06T01:20:04.750Z,6.11
2023-03-06T01:22:31.391Z,6.12
2023-03-06T01:24:57.967Z,6.15
2023-03-06T01:27:24.554Z,6.08
2023-03-06T01:29:51.171Z,6.06
2023-03-06T01:32:17.785Z,6.09
2023-03-06T01:34:44.372Z,6.10
2023-03-06T01:37:11.126Z,6.14
2023-03-06T01:39:37.698Z,6.14
2023-03-06T01:42:05.050Z,6.16
2023-03-06T01:45:29.003Z,6.12
2023-03-06T01:48:07.535Z,6.07
2023-03-06T01:50:39.307Z,6.05
2023-03-06T01:53:07.194Z,6.11
2023-03-06T01:55:36.598Z,6.07
2023-03-06T01:58:13.622Z,5.98
2023-03-06T02:00:40.206Z,6.08
2023-03-06T02:06:04.180Z,6.13
2023-03-06T02:08:32.100Z,6.10
2023-03-06T02:11:11.377Z,6.11
2023-03-06T02:13:39.518Z,6.05
2023-03-06T02:16:08.833Z,6.02
2023-03-06T02:21:51.763Z,6.16
2023-03-06T02:24:48.433Z,6.14
2023-03-06T02:27:17.538Z,6.21
2023-03-06T02:29:44.852Z,6.20
2023-03-06T02:32:11.739Z,5.94
2023-03-06T02:34:38.246Z,6.09
2023-03-06T02:37:08.965Z,6.08
2023-03-06T02:39:46.810Z,6.20
2023-03-06T02:42:23.846Z,6.19
2023-03-06T02:44:52.840Z,6.16
2023-03-06T02:47:19.468Z,6.19
2023-03-06T02:49:46.064Z,6.24
2023-03-06T02:52:12.896Z,6.16
2023-03-06T02:54:57.994Z,6.24
2023-03-06T02:57:24.582Z,6.29
2023-03-06T02:59:51.129Z,6.31
2023-03-06T03:02:17.705Z,6.33
2023-03-06T03:04:57.246Z,6.29
2023-03-06T03:07:50.788Z,6.24
2023-03-06T03:13:12.571Z,6.33
2023-03-06T03:15:39.174Z,6.35
2023-03-06T03:18:05.769Z,6.34
2023-03-06T03:20:32.320Z,6.35
2023-03-06T03:25:34.147Z,6.36
2023-03-06T03:28:00.703Z,6.34
2023-03-06T03:30:27.242Z,6.30
2023-03-06T03:33:50.488Z,6.33
2023-03-06T03:39:30.456Z,6.41
2023-03-06T03:41:56.993Z,6.48
2023-03-06T03:44:23.774Z,6.47
2023-03-06T03:46:50.495Z,6.42
2023-03-06T03:49:17.144Z,6.43
2023-03-06T03:51:43.999Z,6.43
2023-03-06T03:54:10.741Z,6.43
2023-03-06T03:56:37.400Z,6.47
2023-03-06T03:59:04.059Z,6.47
2023-03-06T04:01:30.658Z,6.50
2023-03-06T04:03:57.239Z,6.35
2023-03-06T04:06:24.518Z,6.23
2023-03-06T04:08:51.101Z,6.27
2023-03-06T04:11:17.647Z,6.33
2023-03-06T04:13:44.202Z,6.45
2023-03-06T04:16:10.960Z,6.46
2023-03-06T04:18:37.897Z,6.37
2023-03-06T04:21:04.826Z,6.30
2023-03-06T04:27:04.787Z,6.05
2023-03-06T04:32:07.032Z,6.17
2023-03-06T04:34:33.670Z,6.28
2023-03-06T04:37:00.467Z,6.33
2023-03-06T04:44:43.874Z,6.30
2023-03-06T04:47:11.313Z,6.38
2023-03-06T04:49:37.936Z,6.36
2023-03-06T04:52:10.688Z,6.37
2023-03-06T04:55:04.199Z,6.47
2023-03-06T04:57:45.496Z,6.44
2023-03-06T05:00:17.092Z,6.41
2023-03-06T05:02:44.579Z,6.34
2023-03-06T05:05:12.436Z,6.47
2023-03-06T05:07:39.395Z,6.49
2023-03-06T05:10:07.214Z,6.43
2023-03-06T05:12:37.339Z,6.47
2023-03-06T05:15:05.597Z,6.50
2023-03-06T05:17:32.351Z,6.40
2023-03-06T05:19:59.358Z,6.37
2023-03-06T05:22:44.873Z,6.48
2023-03-06T05:25:20.382Z,6.53
2023-03-06T05:27:53.013Z,6.50
2023-03-06T05:30:21.254Z,6.47
2023-03-06T05:32:47.922Z,6.40
2023-03-06T05:35:20.421Z,6.47
2023-03-06T05:37:47.647Z,6.44
2023-03-06T05:40:15.304Z,6.42
2023-03-06T05:42:42.752Z,6.27
2023-03-06T05:45:10.113Z,6.36
2023-03-06T05:47:36.751Z,6.37
2023-03-06T05:50:04.718Z,6.36
2023-03-06T05:52:31.358Z,6.43
2023-03-06T05:54:57.893Z,6.44
2023-03-06T05:57:25.335Z,6.51
2023-03-06T05:59:52.015Z,6.54
2023-03-06T06:02:19.403Z,6.54
2023-03-06T06:04:45.999Z,6.55
2023-03-06T06:07:17.060Z,6.51
2023-03-06T06:09:45.639Z,6.59
2023-03-06T06:12:13.489Z,6.73
2023-03-06T06:14:40.297Z,6.65
2023-03-06T06:17:10.526Z,6.62
2023-03-06T06:19:37.132Z,6.51
2023-03-06T06:22:03.969Z,6.58
2023-03-06T06:24:32.267Z,6.74
2023-03-06T06:27:01.412Z,6.81
2023-03-06T06:29:30.281Z,6.84
2023-03-06T06:31:57.130Z,6.86
2023-03-06T06:34:24.532Z,6.89
2023-03-06T06:36:53.477Z,7.02
2023-03-06T06:39:22.301Z,6.99
2023-03-06T06:42:05.476Z,7.01
2023-03-06T06:44:37.275Z,7.05
2023-03-06T06:47:23.735Z,7.08
2023-03-06T06:49:55.509Z,7.20
2023-03-06T06:52:25.741Z,7.26
2023-03-06T06:54:53.007Z,7.25
2023-03-06T06:57:19.643Z,7.29
2023-03-06T06:59:46.397Z,7.25
2023-03-06T07:02:15.763Z,7.23
2023-03-06T07:05:00.224Z,7.23
2023-03-06T07:07:27.655Z,7.39
2023-03-06T07:09:55.808Z,7.51
2023-03-06T07:12:22.488Z,7.51
2023-03-06T07:14:49.071Z,7.56
2023-03-06T07:17:15.687Z,7.63
2023-03-06T07:19:42.252Z,7.73
2023-03-06T07:22:08.854Z,7.82
2023-03-06T07:24:35.609Z,7.84
2023-03-06T07:29:37.458Z,7.71
2023-03-06T07:32:04.209Z,7.67
2023-03-06T07:34:30.853Z,7.68
2023-03-06T07:36:57.532Z,7.75
2023-03-06T07:39:24.176Z,7.71
2023-03-06T07:42:37.217Z,7.53
2023-03-06T07:45:37.903Z,7.52
2023-03-06T07:48:22.971Z,7.19
2023-03-06T07:51:01.742Z,7.50
2023-03-06T07:53:28.750Z,7.72
2023-03-06T07:55:55.776Z,7.39
2023-03-06T07:58:22.598Z,7.47
2023-03-06T08:00:49.460Z,7.35
2023-03-06T08:03:16.725Z,7.52
2023-03-06T08:05:44.745Z,7.69
2023-03-06T08:08:12.061Z,7.89
2023-03-06T08:10:38.699Z,8.01
2023-03-06T08:13:05.274Z,7.95
2023-03-06T08:15:31.873Z,8.21
2023-03-06T08:20:40.503Z,8.30
2023-03-06T08:23:07.127Z,8.26
2023-03-06T08:25:33.796Z,8.42
2023-03-06T08:28:01.057Z,8.13
2023-03-06T08:30:27.666Z,8.10
2023-03-06T08:33:25.563Z,8.19
2023-03-06T08:36:12.375Z,8.47
2023-03-06T08:38:39.176Z,8.07
2023-03-06T08:41:05.749Z,8.02
2023-03-06T08:43:32.481Z,8.38
2023-03-06T08:45:59.223Z,8.68
2023-03-06T08:48:25.948Z,9.01
2023-03-06T08:53:41.658Z,9.36
2023-03-06T08:56:21.867Z,9.68
2023-03-06T08:58:49.147Z,9.91
2023-03-06T09:01:17.826Z,9.75
2023-03-06T09:03:44.816Z,9.88
2023-03-06T09:07:23.674Z,9.43
2023-03-06T09:10:28.158Z,9.47
2023-03-06T09:12:55.503Z,9.10
2023-03-06T09:15:23.379Z,9.46
2023-03-06T09:17:50.923Z,9.34
2023-03-06T09:20:18.357Z,9.07
2023-03-06T09:22:45.727Z,9.98
2023-03-06T09:25:20.454Z,10.27
2023-03-06T09:27:55.454Z,10.41
2023-03-06T09:30:28.757Z,9.28
2023-03-06T09:32:55.408Z,8.93
2023-03-06T09:35:22.020Z,9.59
2023-03-06T09:37:48.627Z,9.48
2023-03-06T09:40:54.759Z,9.67
2023-03-06T09:43:46.138Z,8.97
2023-03-06T09:46:19.028Z,9.49
2023-03-06T09:49:30.257Z,10.14
2023-03-06T09:52:23.043Z,10.25
2023-03-06T09:54:58.468Z,10.11
2023-03-06T09:57:32.197Z,10.41
2023-03-06T10:00:08.670Z,9.65
2023-03-06T10:02:44.650Z,9.91
2023-03-06T10:05:20.460Z,9.33
2023-03-06T10:07:57.068Z,9.37
2023-03-06T10:10:27.137Z,10.06
2023-03-06T10:13:03.396Z,9.99
2023-03-06T10:15:36.241Z,9.90
2023-03-06T10:18:03.618Z,10.41
2023-03-06T10:21:16.967Z,10.41
2023-03-06T10:24:01.508Z,9.91
2023-03-06T10:26:43.941Z,9.09
2023-03-06T10:29:13.495Z,9.60
2023-03-06T10:31:44.698Z,9.85
2023-03-06T10:34:22.038Z,9.31
2023-03-06T10:36:48.733Z,8.59
2023-03-06T10:39:20.735Z,8.54
2023-03-06T10:42:17.707Z,8.88
2023-03-06T10:45:09.685Z,8.99
2023-03-06T10:47:37.599Z,9.20
2023-03-06T10:50:27.999Z,8.77
2023-03-06T10:53:07.066Z,9.18
2023-03-06T10:55:35.724Z,9.55
2023-03-06T10:58:19.498Z,9.42
2023-03-06T11:00:46.471Z,9.45
2023-03-06T11:03:23.298Z,9.68
2023-03-06T11:05:55.689Z,9.75
2023-03-06T11:08:23.231Z,10.26
2023-03-06T11:11:06.029Z,9.97
2023-03-06T11:13:38.455Z,9.06
2023-03-06T11:16:40.725Z,8.88
2023-03-06T11:19:27.279Z,9.64
2023-03-06T11:22:06.446Z,10.24
2023-03-06T11:24:40.624Z,10.29
2023-03-06T11:27:34.856Z,10.03
2023-03-06T11:30:19.996Z,10.22
2023-03-06T11:32:54.022Z,10.33
2023-03-06T11:35:24.942Z,10.32
2023-03-06T11:38:04.902Z,10.55
2023-03-06T11:40:42.648Z,10.79
2023-03-06T11:43:23.346Z,10.05
2023-03-06T11:46:15.312Z,10.44
2023-03-06T11:48:46.657Z,10.61
2023-03-06T11:51:35.519Z,9.71
2023-03-06T11:54:02.690Z,10.51
2023-03-06T11:56:47.719Z,10.65
2023-03-06T11:59:29.468Z,10.25
2023-03-06T12:02:00.564Z,9.85
2023-03-06T12:04:48.980Z,10.08
2023-03-06T12:07:31.277Z,9.82
2023-03-06T12:10:09.510Z,10.28
2023-03-06T12:12:51.355Z,9.79
2023-03-06T12:15:42.726Z,10.53
2023-03-06T12:18:34.978Z,9.98
2023-03-06T12:21:29.430Z,10.21
2023-03-06T12:24:23.326Z,9.48
2023-03-06T12:27:10.633Z,9.06
2023-03-06T12:29:53.463Z,9.45
2023-03-06T12:32:55.797Z,9.32
2023-03-06T12:35:45.430Z,9.40
2023-03-06T12:38:46.677Z,9.76
2023-03-06T12:41:28.415Z,9.84
2023-03-06T12:44:01.045Z,9.70
2023-03-06T12:46:30.458Z,9.52
2023-03-06T12:49:23.037Z,9.25
2023-03-06T12:51:58.594Z,9.13
2023-03-06T12:54:29.387Z,9.02
2023-03-06T12:56:58.225Z,9.10
2023-03-06T13:02:38.735Z,9.39
2023-03-06T13:05:14.171Z,8.76
2023-03-06T13:07:52.849Z,9.07
2023-03-06T13:10:27.082Z,9.06
2023-03-06T13:12:57.577Z,9.81
2023-03-06T13:19:42.125Z,10.05
2023-03-06T13:22:22.380Z,10.32
2023-03-06T13:25:17.636Z,10.67
2023-03-06T13:27:54.322Z,10.85
2023-03-06T13:30:45.174Z,11.09
2023-03-06T13:33:33.244Z,10.64
2023-03-06T13:36:20.443Z,10.87
2023-03-06T13:38:53.190Z,10.21
2023-03-06T13:41:22.432Z,9.79
2023-03-06T13:43:51.768Z,9.40
2023-03-06T13:46:27.443Z,9.38
2023-03-06T13:49:19.801Z,9.18
2023-03-06T13:51:52.495Z,9.77
2023-03-06T13:54:57.167Z,10.31
2023-03-06T13:58:04.938Z,10.33
2023-03-06T14:00:41.232Z,10.49
2023-03-06T14:03:25.848Z,10.69
2023-03-06T14:05:52.814Z,10.04
2023-03-06T14:08:20.579Z,10.63
2023-03-06T14:10:58.216Z,10.98
2023-03-06T14:13:41.877Z,9.96
2023-03-06T14:16:21.576Z,9.40
2023-03-06T14:18:50.667Z,9.13
2023-03-06T14:21:27.900Z,9.40
2023-03-06T14:24:03.049Z,9.24
2023-03-06T14:26:37.696Z,8.88
2023-03-06T14:29:04.293Z,7.92
2023-03-06T14:31:36.407Z,7.97
2023-03-06T14:34:07.157Z,7.66
2023-03-06T14:36:43.782Z,7.78
2023-03-06T14:39:31.076Z,7.37
2023-03-06T14:42:16.736Z,7.76
2023-03-06T14:44:43.982Z,8.66
2023-03-06T14:47:27.622Z,8.66
2023-03-06T14:50:23.148Z,8.24
2023-03-06T14:52:55.234Z,8.21
2023-03-06T14:55:25.310Z,8.06
2023-03-06T14:57:58.232Z,7.77
2023-03-06T15:00:30.122Z,6.98
2023-03-06T15:02:57.821Z,6.93
2023-03-06T15:05:29.938Z,6.98
2023-03-06T15:08:02.075Z,6.99
2023-03-06T15:10:31.528Z,6.53
2023-03-06T15:13:09.164Z,6.34
2023-03-06T15:15:36.413Z,6.51
2023-03-06T15:18:03.317Z,7.00
2023-03-06T15:20:53.492Z,6.89
2023-03-06T15:23:25.488Z,6.51
2023-03-06T15:26:00.475Z,6.48
2023-03-06T15:28:39.577Z,6.80
2023-03-06T15:31:20.684Z,6.89
2023-03-06T15:34:06.825Z,7.07
2023-03-06T15:36:55.002Z,6.74
2023-03-06T15:39:34.245Z,7.08
2023-03-06T15:42:21.234Z,6.84
2023-03-06T15:44:50.776Z,7.03
2023-03-06T15:47:17.585Z,7.14
2023-03-06T15:49:44.937Z,7.46
2023-03-06T15:52:12.057Z,6.75
2023-03-06T15:54:38.818Z,6.27
2023-03-06T15:57:08.159Z,6.26
2023-03-06T15:59:43.096Z,5.92
2023-03-06T16:02:18.210Z,5.87
2023-03-06T16:04:45.638Z,5.90
2023-03-06T16:07:13.084Z,6.05
2023-03-06T16:09:41.365Z,6.20
2023-03-06T16:12:15.770Z,6.22
2023-03-06T16:14:42.514Z,6.18
2023-03-06T16:17:12.207Z,5.39
2023-03-06T16:19:39.101Z,6.05
2023-03-06T16:22:05.731Z,5.99
2023-03-06T16:24:32.431Z,6.15
2023-03-06T16:27:01.523Z,6.41
2023-03-06T16:29:29.424Z,6.51
2023-03-06T16:31:57.982Z,6.45
2023-03-06T16:34:25.055Z,5.70
2023-03-06T16:36:52.109Z,5.70
2023-03-06T16:39:21.669Z,6.31
2023-03-06T16:41:51.597Z,6.12
2023-03-06T16:44:18.744Z,5.82
2023-03-06T16:46:48.263Z,5.83
2023-03-06T16:49:20.693Z,6.05
2023-03-06T16:51:48.143Z,6.21
2023-03-06T16:54:14.934Z,6.09
2023-03-06T16:56:42.097Z,6.32
2023-03-06T16:59:09.377Z,5.77
2023-03-06T17:01:36.887Z,5.67
2023-03-06T17:04:03.547Z,5.48
2023-03-06T17:06:30.603Z,5.74
2023-03-06T17:09:00.169Z,5.95
2023-03-06T17:11:27.559Z,5.84
2023-03-06T17:13:55.422Z,5.89
2023-03-06T17:16:22.497Z,6.04
2023-03-06T17:18:49.748Z,5.84
2023-03-06T17:21:16.373Z,5.56
2023-03-06T17:23:44.445Z,5.52
2023-03-06T17:26:20.276Z,5.97
2023-03-06T17:28:47.525Z,5.84
2023-03-06T17:31:26.515Z,5.34
2023-03-06T17:33:57.202Z,5.98
2023-03-06T17:36:23.959Z,5.67
2023-03-06T17:38:51.300Z,5.80
2023-03-06T17:41:17.845Z,5.93
2023-03-06T17:43:44.450Z,6.17
2023-03-06T17:46:13.504Z,5.87
2023-03-06T17:48:40.142Z,6.26
2023-03-06T17:51:07.514Z,5.84
2023-03-06T17:53:34.239Z,5.91
2023-03-06T17:56:06.697Z,6.36
2023-03-06T17:58:33.476Z,6.50
2023-03-06T18:01:00.348Z,6.15
2023-03-06T18:03:27.284Z,6.40
2023-03-06T18:06:05.113Z,6.69
2023-03-06T18:08:32.265Z,6.59
2023-03-06T18:11:04.208Z,6.42
2023-03-06T18:13:32.373Z,6.38
2023-03-06T18:15:59.734Z,6.38
2023-03-06T18:18:27.331Z,6.21
2023-03-06T18:20:54.243Z,6.63
2023-03-06T18:23:20.849Z,6.59
2023-03-06T18:25:47.444Z,6.69
2023-03-06T18:28:14.061Z,6.00
2023-03-06T18:30:42.352Z,5.94
2023-03-06T18:33:10.250Z,6.18
2023-03-06T18:35:37.467Z,6.19
2023-03-06T18:38:04.107Z,5.99
2023-03-06T18:40:30.694Z,5.45
2023-03-06T18:42:57.336Z,5.79
2023-03-06T18:45:24.083Z,5.99
2023-03-06T18:47:54.944Z,5.82
2023-03-06T18:50:21.584Z,5.82
2023-03-06T18:52:48.201Z,5.99
2023-03-06T18:55:14.791Z,6.06
2023-03-06T18:57:41.769Z,5.84
2023-03-06T19:00:09.523Z,5.97
2023-03-06T19:02:36.101Z,5.81
2023-03-06T19:05:02.779Z,5.76
2023-03-06T19:07:29.388Z,5.93
2023-03-06T19:09:56.193Z,5.85
2023-03-06T19:12:23.648Z,6.15
2023-03-06T19:14:50.342Z,6.43
2023-03-06T19:17:16.918Z,6.44
2023-03-06T19:19:43.580Z,6.57
2023-03-06T19:22:10.197Z,6.61
2023-03-06T19:24:36.749Z,6.39
2023-03-06T19:27:03.359Z,6.34
2023-03-06T19:29:29.972Z,6.32
2023-03-06T19:31:57.547Z,6.53
2023-03-06T19:34:24.274Z,6.71
2023-03-06T19:36:51.279Z,6.97
2023-03-06T19:39:18.219Z,6.66
2023-03-06T19:41:46.613Z,6.79
2023-03-06T19:44:14.597Z,6.79
2023-03-06T19:46:41.174Z,6.99
2023-03-06T19:49:12.108Z,6.98
2023-03-06T19:51:38.933Z,6.99
2023-03-06T19:54:05.693Z,7.09
2023-03-06T19:56:33.668Z,6.92
2023-03-06T19:59:00.781Z,6.94
2023-03-06T20:01:28.460Z,6.78
2023-03-06T20:03:59.866Z,6.89
2023-03-06T20:06:29.452Z,6.96
2023-03-06T20:08:56.190Z,6.84
2023-03-06T20:11:29.927Z,6.87
2023-03-06T20:13:58.700Z,6.96
2023-03-06T20:16:28.113Z,6.97
2023-03-06T20:18:58.062Z,7.06
2023-03-06T20:21:25.852Z,7.15
2023-03-06T20:23:53.773Z,7.20
2023-03-06T20:26:20.522Z,7.10
2023-03-06T20:28:50.461Z,7.12
2023-03-06T20:31:21.856Z,7.18
2023-03-06T20:33:51.072Z,7.29
2023-03-06T20:36:20.797Z,7.29
2023-03-06T20:38:47.894Z,7.32
2023-03-06T20:41:25.196Z,7.39
2023-03-06T20:43:52.474Z,7.28
2023-03-06T20:46:21.587Z,7.26
2023-03-06T20:48:50.798Z,7.27
2023-03-06T20:53:55.893Z,7.23
2023-03-06T20:56:27.590Z,7.18
2023-03-06T20:58:56.269Z,7.04
2023-03-06T21:01:28.652Z,7.08
2023-03-06T21:03:56.953Z,7.21
2023-03-06T21:09:51.746Z,7.33
2023-03-06T21:12:18.348Z,7.21
2023-03-06T21:14:44.899Z,7.25
2023-03-06T21:17:13.798Z,7.28
2023-03-06T21:19:41.598Z,7.26
2023-03-06T21:22:10.856Z,7.17
2023-03-06T21:24:40.580Z,7.25
2023-03-06T21:27:07.184Z,7.28
2023-03-06T21:29:33.761Z,7.14
2023-03-06T21:32:00.344Z,7.12
2023-03-06T21:34:27.348Z,7.06
2023-03-06T21:36:54.091Z,6.93
2023-03-06T21:39:21.050Z,7.04
2023-03-06T21:41:47.584Z,7.06
2023-03-06T21:44:14.205Z,7.02
2023-03-06T21:46:40.803Z,6.70
2023-03-06T21:49:07.799Z,6.61
2023-03-06T21:51:34.399Z,6.36
2023-03-06T21:54:02.173Z,6.43
2023-03-06T21:56:29.300Z,6.42
2023-03-06T21:58:56.279Z,6.52
2023-03-06T22:01:26.083Z,6.64
2023-03-06T22:03:53.376Z,6.70
2023-03-06T22:06:25.664Z,6.76
2023-03-06T22:08:52.630Z,6.72
2023-03-06T22:11:44.121Z,6.42
2023-03-06T22:14:29.858Z,6.16
2023-03-06T22:16:56.986Z,6.27
2023-03-06T22:19:23.862Z,6.16
2023-03-06T22:21:50.415Z,6.06
2023-03-06T22:24:17.022Z,5.91
2023-03-06T22:26:43.610Z,6.06
2023-03-06T22:32:05.994Z,6.05
2023-03-06T22:34:32.711Z,5.95
2023-03-06T22:36:59.289Z,6.10
2023-03-06T22:39:26.043Z,6.13
2023-03-06T22:41:55.662Z,6.21
2023-03-06T22:44:34.573Z,6.27
2023-03-06T22:47:25.839Z,6.28
2023-03-06T22:50:18.317Z,6.19
2023-03-06T22:52:45.673Z,5.99
2023-03-06T22:55:12.213Z,6.13
2023-03-06T22:57:38.741Z,6.08
2023-03-06T23:00:06.932Z,6.13
2023-03-06T23:02:35.242Z,6.23
2023-03-06T23:07:43.764Z,6.20
2023-03-06T23:10:10.931Z,6.22
2023-03-06T23:12:37.502Z,6.32
2023-03-06T23:15:05.623Z,6.37
2023-03-06T23:17:32.138Z,6.43
2023-03-06T23:20:17.533Z,6.47
2023-03-06T23:23:08.248Z,6.44
2023-03-06T23:28:10.251Z,6.37
2023-03-06T23:30:39.083Z,6.39
2023-03-06T23:33:05.699Z,6.21
2023-03-06T23:35:33.866Z,5.83
2023-03-06T23:38:02.377Z,5.59
2023-03-06T23:40:31.935Z,5.44
2023-03-06T23:42:58.488Z,5.71
2023-03-06T23:45:25.120Z,5.80
2023-03-06T23:47:51.724Z,5.88
2023-03-06T23:50:19.603Z,5.62
2023-03-06T23:52:46.180Z,5.52
2023-03-06T23:55:44.951Z,5.68
2023-03-06T23:58:23.661Z,5.64
